首页
METAR-TAF:

METAR-TAF

机场 :

诺曼·曼利国际机场

京斯敦, 牙买加

纬度: 17-56N, 经度: 076-47W, 海拔: 3米

当前天气观测

该预报发布于40分钟前的01:00 UTC
风速14节,风向东南
温度 29°C
湿度 70%
气压 1014 hPa
能见度10公里或以上
少量云层高于2200英尺

METAR: MKJP 310100Z 13014KT 9999 FEW022 29/23 Q1014

时间: 20:40 (01:40 UTC)

预报

该预报发布于2小时和25分钟前的23:15 UTC
预报有效从31日的 00点(UTC)到 31日的 24点(UTC)
风速16节,风向南转南东
能见度10公里或以上
少量云层高于2000英尺
少量云层高于2200英尺, 积雨云.
成为
从 31日的 02点(UTC)到 31日的 04点(UTC)
风速10节,风向东转东南
成为
从 31日的 14点(UTC)到 31日的 16点(UTC)
风速20节,风向南转南东
少量云层高于2200英尺
散云层高于3400英尺
几率 30% :
短暂存在
从 31日的 18点(UTC)到 31日的 24点(UTC)
多云层高于1800英尺
少量云层高于2000英尺, 积雨云.
雷暴, 雨

TAF: MKJP 302315Z 3100/3124 15016KT 9999 FEW020 FEW022CB BECMG 3102/3104 12010KT BECMG 3114/3116 15020KT FEW022 SCT034 PROB30 TEMPO 3118/3124 TSRA BKN018 FEW020CB

超过4000个机场的气象观测和天气预报(METAR&TAF报告)。

可查询的气象台以黄色和红色小点在地图上表示。

将鼠标移到小点上方,可查看气象台名称。

然后点击查看天气观测和预报。

如需切换地图:点击带黑十字的绿色按钮放大地图;点击带横线的绿色按钮缩小地图;或者点击绿色箭头查看邻近地区的地图。


METAR-TAF: